Terminal Aerodrome Forecast
Issued by NWS

Home | Current Version | Previous Version | Text Only | Print | Product List | Glossary On
Versions: 1 2 3 4 5 6 7 8 9 10 11 12 13 14 15 16 17 18 19 20 21 22 23 24 25 26 27 28 29 30 31
000
FTUS46 KLOX 301428 AAA
TAFLAX
TAF AMD
KLAX 301428Z 3014/0118 VRB03KT P6SM SKC
     FM301900 26013KT P6SM SKC
     FM010400 VRB03KT P6SM SKC
     FM011000 VRB03KT 6SM BR FEW004=

USA.gov is the U.S. government's official web portal to all federal, state and local government web resources and services.